EST,Max TemperatureF,Mean TemperatureF,Min TemperatureF,Max Dew PointF,MeanDew PointF,Min DewpointF,Max Humidity, Mean Humidity, Min Humidity, Max Sea Level PressureIn, Mean Sea Level PressureIn, Min Sea Level PressureIn, Max VisibilityMiles, Mean VisibilityMiles, Min VisibilityMiles, Max Wind SpeedMPH, Mean Wind SpeedMPH, Max Gust SpeedMPH,PrecipitationIn, CloudCover, Events, WindDirDegrees
2013-2-1,16,11,5,8,2,-1,83,71,59,30.45,30.31,30.13,10,8,1,26,11,36,T,5,Snow,268
2013-2-2,28,22,16,25,17,8,92,80,67,30.29,30.09,30.01,10,6,2,20,9,24,0.03,8,Snow,242
2013-2-3,24,18,12,19,14,7,88,81,73,30.12,30.04,29.98,10,6,1,6,7,9,0.00,7,Snow,272
2013-2-4,37,29,20,31,23,13,92,78,63,30.12,29.91,29.80,10,9,1,14,5,20,T,7,Snow,198
2013-2-5,36,30,23,31,26,20,88,79,70,30.05,29.94,29.85,10,8,4,17,6,22,0.00,6,,289
2013-2-6,34,32,29,27,24,21,85,74,63,30.28,30.22,30.08,10,8,6,15,5,21,0.00,4,,150
2013-2-7,53,41,28,45,33,25,92,69,46,30.20,29.97,29.81,10,7,2,15,6,20,0.14,3,Rain,160
2013-2-8,40,35,30,36,28,23,100,88,75,30.37,30.14,29.86,10,10,7,22,12,29,0.00,8,,323
2013-2-9,39,30,21,24,22,19,92,73,54,30.43,30.34,30.18,10,10,9,14,6,17,0.00,1,,118
2013-2-10,50,41,32,48,36,20,100,78,56,30.17,29.92,29.70,10,10,5,17,9,28,0.11,7,Rain,155
2013-2-11,51,41,31,48,30,23,93,74,54,30.07,29.88,29.69,10,10,10,25,14,39,0.00,5,,257
2013-2-12,43,34,24,29,26,22,92,73,53,30.16,30.06,29.93,10,9,7,12,6,17,0.00,1,,286
2013-2-13,44,36,27,29,25,23,92,67,41,29.94,29.86,29.78,10,9,7,12,4,16,0.00,3,,269
2013-2-14,49,41,33,35,32,28,100,79,58,30.01,29.87,29.81,10,8,5,23,10,35,0.00,5,,220
2013-2-15,36,29,22,30,25,17,85,72,58,30.19,30.10,30.00,10,8,1,22,7,30,0.01,6,Snow,304
2013-2-16,24,22,20,19,13,8,84,69,54,30.16,30.14,30.09,10,9,2,21,11,28,T,7,Snow,302
2013-2-17,31,21,11,13,7,2,84,56,28,30.26,30.20,30.16,10,10,10,12,4,15,0.00,1,,275
2013-2-18,58,42,26,43,30,11,92,65,38,30.15,29.85,29.58,10,10,9,26,13,37,0.15,4,Rain,176
2013-2-19,46,34,21,44,19,10,93,78,62,30.17,29.91,29.57,10,7,2,30,19,41,0.13,8,Rain-Snow,269
2013-2-20,26,19,11,15,10,5,76,66,55,30.35,30.29,30.17,10,10,9,20,11,32,T,5,Snow,320
2013-2-21,31,24,17,27,20,12,92,78,63,30.37,30.19,30.01,10,8,2,20,9,29,0.31,6,Rain-Snow,74
2013-2-22,35,32,28,34,30,25,100,89,78,30.01,29.91,29.83,10,5,0,21,8,26,0.09,8,Fog-Rain-Snow,176
2013-2-23,36,30,23,25,21,19,88,72,56,30.02,29.99,29.95,10,10,9,18,8,22,0.00,2,,274
2013-2-24,39,30,20,27,22,18,92,76,59,30.16,30.09,29.98,10,9,4,14,3,17,0.00,2,,310
2013-2-25,44,34,23,26,24,21,96,73,49,30.18,30.07,29.88,10,9,7,16,7,23,0.00,0,,86
2013-2-26,41,37,32,41,34,25,100,80,59,29.86,29.51,29.38,10,4,1,23,8,31,1.25,8,Rain,76
2013-2-27,41,36,31,40,31,28,100,95,89,29.72,29.64,29.49,10,6,1,16,9,30,0.03,8,Snow,245
2013-2-28,37,34,31,34,31,29,100,91,82,30.01,29.84,29.69,10,8,2,18,12,24,0.02,8,Rain-Snow,300